CST,Max TemperatureF,Mean TemperatureF,Min TemperatureF,Max Dew PointF,MeanDew PointF,Min DewpointF,Max Humidity, Mean Humidity, Min Humidity, Max Sea Level PressureIn, Mean Sea Level PressureIn, Min Sea Level PressureIn, Max VisibilityMiles, Mean VisibilityMiles, Min VisibilityMiles, Max Wind SpeedMPH, Mean Wind SpeedMPH, Max Gust SpeedMPH,PrecipitationIn, CloudCover, Events, WindDirDegrees
2012-11-1,83,74,64,72,69,64,100,85,69,30.09,30.03,29.99,10,7,1,12,5,14,0.00,0,,190
2012-11-2,81,76,71,71,70,69,100,85,69,30.07,30.03,30.00,10,10,10,14,9,17,0.00,0,,178
2012-11-3,82,76,70,70,69,64,93,78,62,30.11,30.06,30.03,10,10,10,15,7,17,T,1,Rain,161
2012-11-4,79,74,68,71,67,64,100,84,67,30.12,30.07,30.02,10,10,6,26,6,33,0.10,2,Rain-Thunderstorm,60
2012-11-5,80,74,67,72,68,59,100,84,67,30.08,30.02,29.93,10,8,0,18,7,23,0.14,3,Fog-Rain-Thunderstorm,258
2012-11-6,74,68,62,59,51,47,70,54,38,30.14,30.09,30.03,10,10,10,21,9,25,0.00,0,,351
2012-11-7,77,68,59,58,55,48,84,61,38,30.19,30.13,30.07,10,10,10,13,3,15,0.00,0,,281
2012-11-8,77,71,64,61,60,58,87,71,54,30.21,30.14,30.12,10,10,4,21,12,25,0.00,0,,121
2012-11-9,79,75,71,65,63,61,79,69,58,30.16,30.11,30.08,10,10,10,20,15,24,0.00,1,,152
2012-11-10,81,76,71,69,66,63,84,73,62,30.12,30.05,29.99,10,10,10,21,14,25,0.00,3,,153
2012-11-11,81,77,73,73,72,68,93,84,74,30.09,29.98,29.92,10,10,8,23,12,29,0.00,6,,163
2012-11-12,73,64,55,61,49,37,93,66,39,30.42,30.28,30.12,10,10,9,33,23,38,0.06,3,Rain,8
2012-11-13,61,55,48,40,35,31,59,46,32,30.46,30.39,30.32,10,10,10,25,16,33,0.00,0,,30
2012-11-14,61,56,51,46,40,36,68,54,39,30.40,30.34,30.28,10,10,10,18,9,22,0.00,4,,12
2012-11-15,65,59,52,49,45,40,89,65,40,30.32,30.28,30.23,10,10,10,16,7,18,0.00,2,,34
2012-11-16,64,57,50,50,46,41,80,64,48,30.35,30.31,30.26,10,10,10,21,10,23,0.00,2,,17
2012-11-17,67,59,51,51,47,38,89,63,37,30.39,30.33,30.30,10,10,10,13,6,16,0.00,0,,36
2012-11-18,70,61,52,57,51,44,96,75,53,30.32,30.28,30.24,10,10,10,13,8,15,0.00,0,,61
2012-11-19,71,64,57,62,58,50,97,81,65,30.28,30.23,30.18,10,10,5,10,6,13,0.00,0,,90
2012-11-20,73,66,59,64,61,57,100,83,66,30.24,30.19,30.14,10,8,2,10,3,12,0.00,1,,129
2012-11-21,78,68,58,63,61,59,100,78,56,30.28,30.21,30.17,10,8,2,5,4,6,0.00,0,Fog,311
2012-11-22,74,66,58,66,63,58,100,84,68,30.22,30.18,30.14,10,4,0,13,6,22,0.00,1,Fog,106
2012-11-23,76,69,62,66,63,52,93,79,64,30.32,30.23,30.16,10,9,4,22,8,26,0.16,6,Rain-Thunderstorm,62
2012-11-24,62,56,50,49,41,37,67,57,46,30.38,30.29,30.19,10,10,10,6,12,7,0.00,2,,27
2012-11-25,72,63,53,67,58,44,93,80,66,30.17,30.08,29.99,10,10,10,12,7,14,0.00,1,,117
2012-11-26,78,72,65,70,69,66,100,87,74,30.07,30.01,29.96,10,10,7,16,9,21,0.00,3,,194
2012-11-27,71,63,55,70,57,49,100,88,75,30.34,30.20,30.06,10,10,2,26,14,31,0.40,7,Rain-Thunderstorm,346
2012-11-28,64,57,50,51,49,45,93,75,56,30.46,30.36,30.32,10,10,8,14,9,16,0.00,0,,57
2012-11-29,69,63,56,64,56,50,100,82,63,30.30,30.24,30.18,10,10,10,15,9,18,0.00,1,,79
2012-11-30,74,70,65,67,65,64,100,90,79,30.20,30.15,30.12,10,10,10,14,10,24,0.00,6,,119